Time;durP1;ratioP1;P1;durP2;ratioP2;P2;SDS_P1;SDS_P2;PMS_P1;PMS_P2;Temp;Humidity;BMP_temperature;BMP_pressure;BME280_temperature;BME280_humidity;BME280_pressure;Samples;Min_cycle;Max_cycle;Signal;HPM_P1;HPM_P2
2022/09/04 00:00:09;;;;;;;1.77;1.50;;;21.10;60.10;;;;;;5074619;28;20068;-80
2022/09/04 00:02:50;;;;;;;2.72;1.42;;;21.10;62.60;;;;;;5066567;28;20530;-80
2022/09/04 00:05:25;;;;;;;2.20;1.60;;;21.10;61.80;;;;;;5055155;28;20025;-79
2022/09/04 00:08:10;;;;;;;2.30;1.43;;;21.00;61.50;;;;;;5056673;28;20059;-80
2022/09/04 00:11:33;;;;;;;1.90;1.50;;;21.00;61.90;;;;;;5063818;28;20377;-80
2022/09/04 00:14:05;;;;;;;2.03;1.60;;;21.00;63.60;;;;;;5056905;28;20201;-80
2022/09/04 00:16:51;;;;;;;2.60;1.48;;;21.00;61.40;;;;;;5061130;28;20480;-80
2022/09/04 00:19:36;;;;;;;1.77;1.38;;;21.00;61.60;;;;;;5070824;28;20065;-80
2022/09/04 00:22:32;;;;;;;1.73;1.40;;;20.90;62.90;;;;;;5029782;28;21237;-79
2022/09/04 00:25:28;;;;;;;1.88;1.40;;;20.90;62.10;;;;;;5075978;28;20032;-78
2022/09/04 00:28:04;;;;;;;2.05;1.30;;;20.90;63.60;;;;;;5053587;28;20399;-78
2022/09/04 00:30:32;;;;;;;1.90;1.58;;;20.80;62.60;;;;;;5069609;28;20501;-78
2022/09/04 00:34:06;;;;;;;1.70;1.40;;;20.80;61.80;;;;;;5049980;28;20306;-78
2022/09/04 00:36:35;;;;;;;2.43;1.50;;;20.80;63.70;;;;;;5005226;28;20121;-78
2022/09/04 00:39:33;;;;;;;1.90;1.40;;;20.80;61.70;;;;;;5014720;28;20399;-78
2022/09/04 00:42:07;;;;;;;2.40;1.40;;;20.70;63.90;;;;;;5074364;28;20303;-78
2022/09/04 00:44:49;;;;;;;2.00;1.52;;;20.70;61.70;;;;;;5059485;28;20033;-78
2022/09/04 00:47:34;;;;;;;2.10;1.48;;;20.70;63.40;;;;;;5066655;28;20036;-78
2022/09/04 00:50:06;;;;;;;2.37;1.50;;;20.70;64.00;;;;;;5072319;28;20222;-80
2022/09/04 00:52:53;;;;;;;1.88;1.40;;;20.60;62.40;;;;;;5054133;28;20480;-80
2022/09/04 00:55:37;;;;;;;1.92;1.25;;;20.60;61.90;;;;;;5080233;28;20035;-80
2022/09/04 00:58:20;;;;;;;2.13;1.50;;;20.60;63.80;;;;;;5043499;28;20869;-79
2022/09/04 01:00:47;;;;;;;2.00;1.48;;;20.60;63.90;;;;;;5074950;28;20315;-80
2022/09/04 01:03:46;;;;;;;2.27;1.53;;;20.50;62.20;;;;;;5064284;28;20497;-79
2022/09/04 01:06:41;;;;;;;1.95;1.48;;;20.50;64.10;;;;;;5074734;28;20447;-79
2022/09/04 01:09:07;;;;;;;2.50;1.48;;;20.50;63.60;;;;;;5042240;28;20102;-79
2022/09/04 01:11:50;;;;;;;1.90;1.33;;;20.40;62.40;;;;;;5078338;28;20509;-79
2022/09/04 01:14:40;;;;;;;2.13;1.58;;;20.40;64.10;;;;;;5073559;28;20016;-80
2022/09/04 01:17:44;;;;;;;1.85;1.42;;;20.30;64.00;;;;;;5073397;28;20202;-78
2022/09/04 01:20:19;;;;;;;2.60;1.63;;;20.30;64.50;;;;;;5063923;28;20077;-77
2022/09/04 01:23:05;;;;;;;2.13;1.40;;;20.30;62.60;;;;;;5055057;28;20115;-77
2022/09/04 01:26:03;;;;;;;2.58;1.60;;;20.20;64.10;;;;;;5051789;28;20069;-77
2022/09/04 01:28:40;;;;;;;2.63;1.63;;;20.20;65.00;;;;;;5044657;28;20294;-77
2022/09/04 01:31:37;;;;;;;2.28;1.83;;;20.20;63.50;;;;;;5074415;28;20125;-77
2022/09/04 01:34:20;;;;;;;1.50;1.33;;;20.10;65.10;;;;;;5053284;28;20039;-77
2022/09/04 01:36:59;;;;;;;1.90;1.50;;;20.10;64.40;;;;;;5040656;28;20515;-77
2022/09/04 01:39:28;;;;;;;2.75;1.42;;;20.10;63.70;;;;;;5042741;28;20107;-77
2022/09/04 01:42:02;;;;;;;2.83;1.50;;;20.00;63.10;;;;;;5032371;28;20028;-77
2022/09/04 01:44:29;;;;;;;1.70;1.50;;;20.00;64.10;;;;;;5067770;28;20032;-77
2022/09/04 01:46:58;;;;;;;2.40;1.58;;;20.00;63.40;;;;;;5054143;28;20208;-77
2022/09/04 01:49:37;;;;;;;1.80;1.43;;;19.90;63.40;;;;;;5075645;28;20036;-77
2022/09/04 01:52:32;;;;;;;2.95;1.60;;;19.90;65.00;;;;;;5057535;28;20297;-77
2022/09/04 01:55:01;;;;;;;2.03;1.40;;;19.90;65.50;;;;;;5051174;28;20032;-77
2022/09/04 01:57:48;;;;;;;1.95;1.27;;;19.90;63.70;;;;;;5055030;28;20040;-77
2022/09/04 02:00:21;;;;;;;1.95;1.38;;;19.80;64.20;;;;;;5055922;28;20312;-77
2022/09/04 02:03:15;;;;;;;2.27;1.57;;;19.80;64.70;;;;;;5053733;28;20251;-77
2022/09/04 02:05:55;;;;;;;2.40;1.40;;;19.80;65.00;;;;;;5058008;28;20098;-77
2022/09/04 02:08:24;;;;;;;1.90;1.40;;;19.80;64.30;;;;;;5069737;28;20032;-77
2022/09/04 02:11:06;;;;;;;2.08;1.50;;;19.80;64.00;;;;;;5058618;28;20035;-77
2022/09/04 02:14:07;;;;;;;2.70;1.60;;;19.80;65.80;;;;;;5059798;28;20028;-79
2022/09/04 02:16:44;;;;;;;2.83;1.57;;;19.70;66.00;;;;;;5072217;28;20454;-79
2022/09/04 02:19:26;;;;;;;2.25;1.58;;;19.70;64.10;;;;;;5051003;28;20479;-79
2022/09/04 02:22:00;;;;;;;3.15;1.67;;;19.70;64.70;;;;;;5051825;28;20249;-79
2022/09/04 02:24:41;;;;;;;2.40;1.63;;;19.70;65.10;;;;;;5066226;28;20036;-79
2022/09/04 02:27:33;;;;;;;2.55;1.60;;;19.70;65.60;;;;;;5042087;28;20321;-79
2022/09/04 02:30:12;;;;;;;2.10;1.53;;;19.60;65.40;;;;;;5068278;28;20020;-79
2022/09/04 02:32:49;;;;;;;2.20;1.60;;;19.60;65.70;;;;;;5059510;28;20068;-79
2022/09/04 02:35:47;;;;;;;2.35;1.60;;;19.60;65.20;;;;;;5071085;28;20257;-79
2022/09/04 02:38:28;;;;;;;2.30;1.50;;;19.60;66.00;;;;;;5065678;28;20705;-79
2022/09/04 02:41:20;;;;;;;2.33;1.63;;;19.50;65.70;;;;;;5056425;28;20181;-79
2022/09/04 02:43:57;;;;;;;1.90;1.30;;;19.50;66.20;;;;;;5058173;28;20496;-79
2022/09/04 02:46:55;;;;;;;2.20;1.50;;;19.50;66.20;;;;;;5051527;28;20565;-79
2022/09/04 02:49:43;;;;;;;1.70;1.45;;;19.50;66.80;;;;;;5070112;28;20051;-79
2022/09/04 02:52:11;;;;;;;2.83;1.55;;;19.40;66.60;;;;;;5054677;28;20028;-79
2022/09/04 02:55:05;;;;;;;2.13;1.50;;;19.40;65.00;;;;;;5071437;28;20027;-79
2022/09/04 02:57:53;;;;;;;2.00;1.40;;;19.40;66.70;;;;;;5064867;28;20113;-79
2022/09/04 03:00:38;;;;;;;2.38;1.35;;;19.30;65.40;;;;;;5061911;28;20312;-79
2022/09/04 03:03:16;;;;;;;3.30;1.60;;;19.30;66.00;;;;;;5068020;28;20040;-79
2022/09/04 03:06:12;;;;;;;2.15;1.67;;;19.30;66.40;;;;;;5073532;28;20384;-79
2022/09/04 03:08:42;;;;;;;2.15;1.58;;;19.30;67.40;;;;;;5062751;28;20043;-78
2022/09/04 03:11:32;;;;;;;1.93;1.60;;;19.20;65.40;;;;;;5073773;28;20404;-78
2022/09/04 03:14:09;;;;;;;2.50;1.73;;;19.20;67.10;;;;;;5044003;28;20312;-78
2022/09/04 03:17:15;;;;;;;1.80;1.45;;;19.20;66.30;;;;;;5077682;28;20033;-78
2022/09/04 03:19:54;;;;;;;2.13;1.58;;;19.20;67.20;;;;;;5060613;28;20020;-78
2022/09/04 03:22:42;;;;;;;1.92;1.40;;;19.20;66.80;;;;;;5074699;28;20638;-78
2022/09/04 03:25:33;;;;;;;2.23;1.60;;;19.10;66.60;;;;;;5056729;28;20339;-78
2022/09/04 03:28:00;;;;;;;2.53;1.67;;;19.10;67.50;;;;;;5060465;28;20050;-77
2022/09/04 03:30:30;;;;;;;3.00;1.60;;;19.10;66.00;;;;;;5058478;28;20016;-77
2022/09/04 03:33:11;;;;;;;2.78;1.88;;;19.00;66.10;;;;;;5065344;28;20024;-78
2022/09/04 03:35:52;;;;;;;2.63;1.58;;;19.00;67.70;;;;;;5058644;28;20107;-77
2022/09/04 03:39:12;;;;;;;2.17;1.50;;;19.00;67.40;;;;;;5077924;28;20778;-77
2022/09/04 03:41:53;;;;;;;2.45;1.42;;;19.00;68.20;;;;;;5056219;28;20024;-77
2022/09/04 03:44:48;;;;;;;2.08;1.60;;;18.90;67.30;;;;;;5052552;28;21437;-77
2022/09/04 03:47:32;;;;;;;3.05;1.67;;;18.90;67.90;;;;;;5051249;28;20086;-77
2022/09/04 03:50:09;;;;;;;2.30;1.60;;;18.90;67.70;;;;;;5075692;28;20505;-77
2022/09/04 03:53:04;;;;;;;3.47;1.60;;;18.90;66.60;;;;;;5054030;28;20316;-77
2022/09/04 03:55:54;;;;;;;1.95;1.50;;;18.90;68.60;;;;;;5057143;28;20046;-78
2022/09/04 03:59:00;;;;;;;2.28;1.77;;;18.80;68.20;;;;;;5042200;28;20246;-77
2022/09/04 04:01:56;;;;;;;2.25;1.60;;;18.80;69.00;;;;;;5054658;28;20741;-77
2022/09/04 04:04:48;;;;;;;1.90;1.50;;;18.80;67.70;;;;;;5059185;28;20245;-77
2022/09/04 04:07:37;;;;;;;2.33;1.53;;;18.70;68.90;;;;;;5060680;28;20040;-77
2022/09/04 04:10:24;;;;;;;2.15;1.45;;;18.80;68.50;;;;;;5062657;28;20101;-77
2022/09/04 04:12:59;;;;;;;2.10;1.60;;;18.80;67.80;;;;;;5071702;28;20085;-77
2022/09/04 04:15:32;;;;;;;3.45;1.80;;;18.70;68.10;;;;;;5059077;28;20187;-77
2022/09/04 04:18:10;;;;;;;2.13;1.50;;;18.80;67.80;;;;;;5052042;28;20388;-77
2022/09/04 04:20:42;;;;;;;2.33;1.40;;;18.70;68.00;;;;;;5063874;28;20248;-77
2022/09/04 04:23:16;;;;;;;2.35;1.63;;;18.70;67.30;;;;;;5062099;28;20531;-77
2022/09/04 04:25:48;;;;;;;2.30;1.60;;;18.70;67.40;;;;;;5065814;28;20027;-77
2022/09/04 04:28:46;;;;;;;2.08;1.55;;;18.70;67.10;;;;;;5056834;28;20540;-77
2022/09/04 04:31:44;;;;;;;2.35;1.58;;;18.70;68.20;;;;;;5057978;28;20026;-77
2022/09/04 04:34:28;;;;;;;2.90;1.50;;;18.70;68.20;;;;;;5041960;28;20055;-77
2022/09/04 04:37:29;;;;;;;2.15;1.40;;;18.70;68.40;;;;;;5075074;28;20119;-77
2022/09/04 04:39:54;;;;;;;2.70;1.60;;;18.60;68.60;;;;;;5032197;28;20040;-77
2022/09/04 04:42:40;;;;;;;3.03;1.50;;;18.60;67.10;;;;;;5075028;28;20432;-77
2022/09/04 04:48:38;;;;;;;1.55;1.40;;;18.60;68.60;;;;;;5067833;28;20048;-77
2022/09/04 04:51:40;;;;;;;2.45;1.40;;;18.60;68.60;;;;;;5044836;28;20043;-77
2022/09/04 04:54:35;;;;;;;2.17;1.50;;;18.60;67.80;;;;;;5022896;28;20307;-77
2022/09/04 04:57:20;;;;;;;1.47;1.30;;;18.60;68.20;;;;;;5070183;28;20012;-77
2022/09/04 05:00:10;;;;;;;1.80;1.30;;;18.50;68.40;;;;;;5076751;28;20020;-77
2022/09/04 05:03:14;;;;;;;2.00;1.35;;;18.60;67.50;;;;;;5041318;28;20039;-77
2022/09/04 05:06:08;;;;;;;1.88;1.50;;;18.60;68.90;;;;;;5063217;28;20589;-79
2022/09/04 05:08:53;;;;;;;1.73;1.42;;;18.60;69.20;;;;;;5054839;28;20036;-77
2022/09/04 05:11:24;;;;;;;2.53;1.30;;;18.60;68.60;;;;;;5058827;28;20227;-78
2022/09/04 05:14:21;;;;;;;2.33;1.60;;;18.60;68.70;;;;;;5053678;28;20029;-77
2022/09/04 05:16:55;;;;;;;2.55;1.50;;;18.70;69.20;;;;;;5067526;28;20025;-77
2022/09/04 05:19:33;;;;;;;1.83;1.60;;;18.70;69.00;;;;;;5046710;28;20516;-77
2022/09/04 05:22:07;;;;;;;2.30;1.45;;;18.80;69.90;;;;;;5043717;28;20020;-77
2022/09/04 05:24:58;;;;;;;2.07;1.60;;;18.80;69.20;;;;;;5049467;28;20043;-77
2022/09/04 05:27:38;;;;;;;2.70;1.60;;;18.80;69.50;;;;;;5057354;28;22491;-77
2022/09/04 05:30:16;;;;;;;2.58;1.60;;;18.90;69.20;;;;;;5059792;28;20039;-77
2022/09/04 05:33:10;;;;;;;2.22;1.52;;;18.90;69.00;;;;;;5069708;28;20067;-77
2022/09/04 05:36:01;;;;;;;2.78;1.80;;;18.90;69.80;;;;;;5038099;28;20035;-77
2022/09/04 05:39:04;;;;;;;2.37;1.73;;;18.90;70.30;;;;;;5058993;28;20109;-77
2022/09/04 05:41:39;;;;;;;2.35;1.52;;;19.00;70.40;;;;;;5046309;28;20032;-78
2022/09/04 05:44:14;;;;;;;2.53;1.60;;;19.00;69.70;;;;;;5056784;28;20032;-77
2022/09/04 05:47:10;;;;;;;2.22;1.58;;;19.00;68.70;;;;;;5051530;28;20044;-77
2022/09/04 05:50:11;;;;;;;3.22;1.65;;;19.00;69.80;;;;;;5055897;28;20186;-77
2022/09/04 05:53:01;;;;;;;2.50;1.50;;;19.10;70.20;;;;;;5052035;28;20141;-77
2022/09/04 05:55:57;;;;;;;2.17;1.58;;;19.10;69.70;;;;;;5058260;28;20055;-77
2022/09/04 05:58:23;;;;;;;3.40;1.55;;;19.10;69.20;;;;;;5045009;28;20028;-77
2022/09/04 06:01:37;;;;;;;1.88;1.50;;;19.10;68.60;;;;;;5047864;28;20040;-77
2022/09/04 06:04:28;;;;;;;2.67;1.50;;;19.10;70.50;;;;;;5041108;28;20448;-77
2022/09/04 06:07:15;;;;;;;1.90;1.27;;;19.10;69.50;;;;;;5052024;28;20017;-77
2022/09/04 06:09:57;;;;;;;1.85;1.35;;;19.10;70.50;;;;;;5070963;28;20142;-78
2022/09/04 06:12:46;;;;;;;2.90;1.83;;;19.20;70.20;;;;;;5026024;28;20093;-77
2022/09/04 06:15:35;;;;;;;3.00;2.10;;;19.20;70.60;;;;;;5063861;28;20644;-77
2022/09/04 06:18:27;;;;;;;2.65;1.67;;;19.30;70.90;;;;;;5051325;28;20047;-77
2022/09/04 06:21:23;;;;;;;3.77;1.73;;;19.40;71.10;;;;;;5034920;28;20544;-77
2022/09/04 06:24:18;;;;;;;3.17;1.75;;;19.40;71.50;;;;;;5051059;28;20493;-77
2022/09/04 06:27:02;;;;;;;2.60;1.83;;;19.50;72.10;;;;;;5055734;28;20598;-78
2022/09/04 06:29:31;;;;;;;2.42;1.50;;;19.50;70.40;;;;;;5068864;28;20097;-78
2022/09/04 06:32:07;;;;;;;3.97;1.92;;;19.60;70.90;;;;;;5054487;28;20119;-78
2022/09/04 06:34:52;;;;;;;2.90;1.80;;;19.70;71.90;;;;;;5071403;28;20107;-78
2022/09/04 06:37:56;;;;;;;2.80;1.65;;;19.80;70.80;;;;;;5072392;28;20424;-78
2022/09/04 06:40:54;;;;;;;2.72;1.67;;;19.90;72.50;;;;;;5071118;28;20047;-78
2022/09/04 06:43:40;;;;;;;2.47;1.67;;;20.00;71.90;;;;;;5067470;28;20072;-78
2022/09/04 06:46:33;;;;;;;2.63;1.90;;;20.00;71.30;;;;;;5064189;28;20024;-78
2022/09/04 06:49:20;;;;;;;3.10;1.83;;;20.10;72.00;;;;;;5059593;28;20742;-78
2022/09/04 06:52:20;;;;;;;2.25;1.70;;;20.20;71.80;;;;;;5067063;28;20443;-77
2022/09/04 06:54:59;;;;;;;2.08;1.65;;;20.30;72.00;;;;;;5046169;28;20082;-78
2022/09/04 06:57:49;;;;;;;2.85;1.80;;;20.30;72.00;;;;;;5060694;28;20028;-78
2022/09/04 07:00:17;;;;;;;2.60;1.77;;;20.40;72.00;;;;;;5064515;28;20115;-78
2022/09/04 07:03:27;;;;;;;3.73;1.73;;;20.50;71.30;;;;;;5058511;28;20050;-78
2022/09/04 07:06:10;;;;;;;2.95;1.90;;;20.60;72.40;;;;;;5068472;28;20257;-78
2022/09/04 07:09:07;;;;;;;2.80;1.98;;;20.70;72.20;;;;;;5042687;28;20044;-78
2022/09/04 07:11:46;;;;;;;3.00;1.90;;;20.80;71.80;;;;;;5053097;28;20020;-78
2022/09/04 07:14:19;;;;;;;3.00;2.00;;;21.00;71.60;;;;;;5061350;28;20024;-78
2022/09/04 07:17:04;;;;;;;4.97;2.20;;;21.10;72.30;;;;;;5067428;28;20039;-78
2022/09/04 07:19:51;;;;;;;3.30;2.08;;;21.30;72.70;;;;;;5047963;28;20690;-78
2022/09/04 07:22:44;;;;;;;3.10;2.00;;;21.60;73.80;;;;;;5050298;28;20474;-77
2022/09/04 07:25:29;;;;;;;3.58;2.13;;;21.90;73.70;;;;;;5042879;28;20039;-78
2022/09/04 07:28:13;;;;;;;3.47;2.58;;;22.20;73.20;;;;;;5071176;28;20032;-78
2022/09/04 07:30:57;;;;;;;3.10;2.30;;;22.50;72.80;;;;;;5074734;28;20111;-78
2022/09/04 07:33:30;;;;;;;5.82;2.80;;;22.80;73.30;;;;;;5058053;28;20028;-77
2022/09/04 07:36:07;;;;;;;4.28;2.90;;;23.20;74.20;;;;;;5061751;28;20017;-79
2022/09/04 07:38:39;;;;;;;5.00;3.08;;;23.70;74.50;;;;;;5046463;28;20052;-78
2022/09/04 07:41:34;;;;;;;3.58;2.50;;;24.30;74.10;;;;;;5047314;28;20392;-79
2022/09/04 07:44:05;;;;;;;3.40;2.70;;;24.80;73.60;;;;;;5056463;28;20329;-78
2022/09/04 07:47:06;;;;;;;3.90;2.80;;;25.30;73.40;;;;;;5069672;28;20036;-78
2022/09/04 07:49:46;;;;;;;3.70;2.63;;;25.90;71.50;;;;;;5042553;28;20547;-78
2022/09/04 07:52:50;;;;;;;3.17;2.60;;;26.40;71.80;;;;;;5066718;28;20016;-78
2022/09/04 07:55:35;;;;;;;3.42;2.80;;;26.90;71.10;;;;;;5027344;28;20344;-78
2022/09/04 07:58:06;;;;;;;3.30;2.53;;;27.50;70.40;;;;;;5052497;28;20028;-78
2022/09/04 08:01:01;;;;;;;3.42;2.63;;;27.90;70.20;;;;;;5045049;28;20091;-78
2022/09/04 08:03:48;;;;;;;3.83;2.63;;;28.40;67.90;;;;;;5072151;28;20032;-78
2022/09/04 08:06:34;;;;;;;3.10;2.30;;;28.90;66.50;;;;;;5057990;28;20253;-78
2022/09/04 08:09:37;;;;;;;3.20;2.30;;;29.30;67.00;;;;;;5057018;28;20024;-78
2022/09/04 08:12:24;;;;;;;3.37;2.60;;;29.70;65.20;;;;;;5040128;28;20043;-78
2022/09/04 08:15:26;;;;;;;2.47;2.17;;;30.10;66.40;;;;;;5060084;28;20130;-79
2022/09/04 08:18:04;;;;;;;3.40;2.38;;;30.40;63.10;;;;;;5064154;28;20454;-79
2022/09/04 08:20:30;;;;;;;2.67;2.13;;;30.70;62.40;;;;;;5058777;28;20051;-78
2022/09/04 08:23:17;;;;;;;2.50;2.13;;;30.90;63.50;;;;;;5051359;28;20040;-78
2022/09/04 08:25:57;;;;;;;2.80;2.05;;;31.10;62.00;;;;;;5047569;28;20388;-78
2022/09/04 08:28:55;;;;;;;3.20;2.22;;;31.30;60.70;;;;;;5031420;28;20884;-78
2022/09/04 08:31:34;;;;;;;2.67;2.33;;;31.50;61.10;;;;;;5031998;28;20616;-78
2022/09/04 08:34:33;;;;;;;2.50;2.30;;;31.80;59.90;;;;;;5046988;28;20285;-79
2022/09/04 08:37:02;;;;;;;2.67;2.22;;;32.10;59.20;;;;;;5051464;28;20035;-78
2022/09/04 08:39:49;;;;;;;2.30;2.10;;;32.30;60.30;;;;;;5079551;28;20041;-79
2022/09/04 08:42:49;;;;;;;2.65;2.22;;;32.50;58.30;;;;;;5037494;28;20412;-79
2022/09/04 08:45:51;;;;;;;2.72;2.05;;;32.80;58.10;;;;;;5047944;28;20112;-78
2022/09/04 08:48:49;;;;;;;3.00;2.20;;;33.20;56.60;;;;;;5053655;28;20178;-79
2022/09/04 08:51:48;;;;;;;2.22;2.03;;;33.50;55.80;;;;;;5055616;28;20540;-79
2022/09/04 08:54:19;;;;;;;2.42;2.15;;;33.70;55.10;;;;;;5058196;28;20484;-78
2022/09/04 08:57:12;;;;;;;2.55;2.10;;;34.00;56.50;;;;;;5056059;28;20324;-78
2022/09/04 09:00:09;;;;;;;2.47;1.98;;;34.20;54.60;;;;;;5025913;28;20168;-78
2022/09/04 09:03:05;;;;;;;2.10;1.90;;;34.40;53.10;;;;;;5046583;28;20040;-78
2022/09/04 09:06:05;;;;;;;2.47;2.25;;;34.60;52.50;;;;;;5063317;28;20031;-78
2022/09/04 09:08:57;;;;;;;2.08;1.90;;;34.80;50.70;;;;;;5062637;28;20059;-79
2022/09/04 09:11:42;;;;;;;2.08;1.88;;;34.80;51.40;;;;;;5051816;28;21272;-78
2022/09/04 09:14:47;;;;;;;1.90;1.70;;;34.90;49.90;;;;;;5038480;28;20465;-78
2022/09/04 09:17:38;;;;;;;1.80;1.70;;;34.90;49.70;;;;;;5031497;28;20032;-78
2022/09/04 09:20:22;;;;;;;1.77;1.63;;;35.10;50.30;;;;;;5074752;28;20035;-78
2022/09/04 09:23:17;;;;;;;2.10;1.90;;;35.20;51.00;;;;;;5053920;28;20025;-79
2022/09/04 09:25:57;;;;;;;1.70;1.60;;;35.40;48.70;;;;;;5063715;28;20023;-78
2022/09/04 09:28:46;;;;;;;2.28;1.90;;;35.60;49.40;;;;;;5050677;28;20742;-78
2022/09/04 09:31:41;;;;;;;1.93;1.60;;;35.80;47.30;;;;;;5039492;28;20039;-78
2022/09/04 09:34:28;;;;;;;2.53;2.30;;;35.90;47.60;;;;;;5030652;28;20028;-78
2022/09/04 09:37:14;;;;;;;2.05;1.95;;;36.20;47.00;;;;;;5076135;28;20525;-78
2022/09/04 09:40:14;;;;;;;2.22;1.88;;;36.40;46.50;;;;;;5072919;28;20433;-78
2022/09/04 09:43:04;;;;;;;2.25;2.03;;;36.60;45.70;;;;;;5073988;28;20316;-78
2022/09/04 09:45:43;;;;;;;1.80;1.70;;;36.90;45.80;;;;;;5055633;28;20062;-78
2022/09/04 09:48:30;;;;;;;1.90;1.73;;;37.10;46.00;;;;;;5066226;28;20035;-78
2022/09/04 09:50:59;;;;;;;2.38;2.17;;;37.30;45.10;;;;;;5052082;28;20268;-78
2022/09/04 09:54:02;;;;;;;2.25;2.05;;;37.50;44.80;;;;;;5066399;28;20060;-78
2022/09/04 09:56:46;;;;;;;2.30;2.10;;;37.70;43.70;;;;;;5065278;28;20101;-78
2022/09/04 09:59:54;;;;;;;2.53;1.87;;;38.00;44.20;;;;;;5057980;28;20727;-77
2022/09/04 10:02:38;;;;;;;1.50;1.40;;;38.10;40.90;;;;;;5054889;28;20035;-77
2022/09/04 10:05:37;;;;;;;2.20;1.75;;;38.00;40.90;;;;;;5050496;28;20024;-77
2022/09/04 10:08:16;;;;;;;1.70;1.60;;;37.80;40.30;;;;;;5062481;28;20131;-78
2022/09/04 10:11:01;;;;;;;1.70;1.50;;;37.70;39.90;;;;;;5050110;28;20035;-77
2022/09/04 10:13:50;;;;;;;1.83;1.30;;;37.50;39.30;;;;;;5056400;28;20024;-77
2022/09/04 10:16:25;;;;;;;1.65;1.55;;;37.20;38.80;;;;;;5039778;28;20359;-78
2022/09/04 10:19:10;;;;;;;1.80;1.50;;;36.90;38.80;;;;;;5046299;28;20534;-78
2022/09/04 10:22:04;;;;;;;3.35;1.45;;;36.70;38.50;;;;;;5057815;28;20051;-78
2022/09/04 10:24:41;;;;;;;1.98;1.20;;;36.60;37.00;;;;;;5066987;28;20039;-77
2022/09/04 10:27:10;;;;;;;1.57;1.47;;;36.60;39.10;;;;;;5049088;28;21928;-78
2022/09/04 10:29:36;;;;;;;1.33;1.10;;;36.60;38.20;;;;;;5056850;28;20040;-76
2022/09/04 10:32:31;;;;;;;1.30;1.20;;;36.70;38.10;;;;;;5065963;28;20082;-76
2022/09/04 10:35:24;;;;;;;1.80;1.38;;;36.90;36.90;;;;;;5040221;28;20040;-78
2022/09/04 10:37:55;;;;;;;1.30;1.20;;;37.00;36.80;;;;;;5070711;28;20028;-77
2022/09/04 10:40:40;;;;;;;1.90;1.30;;;37.20;36.00;;;;;;5046086;28;20521;-77
2022/09/04 10:43:40;;;;;;;1.50;1.33;;;37.20;35.70;;;;;;5050278;28;20518;-77
2022/09/04 10:46:21;;;;;;;2.40;1.50;;;37.30;34.40;;;;;;5065276;28;20059;-77
2022/09/04 10:49:17;;;;;;;2.30;1.50;;;37.30;35.60;;;;;;5051403;28;20353;-77
2022/09/04 10:52:03;;;;;;;1.70;1.37;;;37.40;34.50;;;;;;5039426;28;20431;-77
2022/09/04 10:54:53;;;;;;;1.48;1.30;;;37.40;35.90;;;;;;5065980;28;20024;-77
2022/09/04 10:57:38;;;;;;;2.08;1.70;;;37.40;34.80;;;;;;5040966;28;20017;-78
2022/09/04 11:00:10;;;;;;;1.63;1.20;;;37.50;33.60;;;;;;5040424;28;20024;-77
2022/09/04 11:02:41;;;;;;;1.92;1.40;;;37.60;34.10;;;;;;5045550;28;20270;-77
2022/09/04 11:05:28;;;;;;;1.70;1.30;;;37.60;34.20;;;;;;5042960;28;20025;-77
2022/09/04 11:08:21;;;;;;;1.92;1.30;;;37.60;33.00;;;;;;5054380;28;20036;-77
2022/09/04 11:11:02;;;;;;;2.13;1.50;;;37.60;32.60;;;;;;5058803;28;20424;-77
2022/09/04 11:13:49;;;;;;;1.60;1.30;;;37.60;32.20;;;;;;5068758;28;20343;-78
2022/09/04 11:16:34;;;;;;;1.85;1.40;;;37.60;30.70;;;;;;5044050;28;20706;-77
2022/09/04 11:20:02;;;;;;;1.50;1.40;;;37.50;30.10;;;;;;5073921;28;20043;-77
2022/09/04 11:22:33;;;;;;;1.30;1.20;;;37.40;31.30;;;;;;5036908;28;20217;-77
2022/09/04 11:25:24;;;;;;;1.20;1.10;;;37.50;31.20;;;;;;5075575;28;20042;-77
2022/09/04 11:28:05;;;;;;;1.70;1.38;;;37.50;30.30;;;;;;5046395;28;20431;-76
2022/09/04 11:30:58;;;;;;;1.48;1.38;;;37.70;30.30;;;;;;5056895;28;20133;-77
2022/09/04 11:33:48;;;;;;;1.40;1.20;;;37.90;30.00;;;;;;5063013;28;20024;-77
2022/09/04 11:36:39;;;;;;;1.63;1.30;;;38.00;30.20;;;;;;5044149;28;20028;-77
2022/09/04 11:39:19;;;;;;;1.98;1.60;;;38.10;29.40;;;;;;5062906;28;20257;-77
2022/09/04 11:42:02;;;;;;;1.42;1.33;;;38.20;28.50;;;;;;5079200;28;20508;-76
2022/09/04 11:45:04;;;;;;;1.98;1.80;;;38.20;28.70;;;;;;5067178;28;20043;-78
2022/09/04 11:47:48;;;;;;;1.13;1.03;;;38.20;29.00;;;;;;5074341;28;20032;-77
2022/09/04 11:50:33;;;;;;;1.50;1.25;;;38.10;28.10;;;;;;5065303;28;20024;-77
2022/09/04 11:53:14;;;;;;;2.45;1.58;;;38.10;28.40;;;;;;5065798;28;20236;-77
2022/09/04 11:55:53;;;;;;;1.45;1.30;;;38.10;28.20;;;;;;5071316;28;20028;-77
2022/09/04 11:58:35;;;;;;;1.75;1.65;;;38.30;28.60;;;;;;5054592;28;20024;-77
2022/09/04 12:01:25;;;;;;;1.40;1.30;;;38.50;28.80;;;;;;5079627;28;20611;-77
2022/09/04 12:04:07;;;;;;;1.73;1.63;;;38.70;28.80;;;;;;5066985;28;20070;-77
2022/09/04 12:07:17;;;;;;;1.52;1.42;;;38.90;28.60;;;;;;5074921;28;20024;-78
2022/09/04 12:10:08;;;;;;;2.13;1.90;;;39.20;28.50;;;;;;5059024;28;20131;-79
2022/09/04 12:12:52;;;;;;;1.50;1.40;;;39.40;26.90;;;;;;5066985;28;20054;-77
2022/09/04 12:15:54;;;;;;;1.60;1.33;;;39.50;27.30;;;;;;5080436;28;20032;-77
2022/09/04 12:18:53;;;;;;;1.40;1.30;;;39.40;27.30;;;;;;5070772;28;20104;-78
2022/09/04 12:21:47;;;;;;;2.22;1.90;;;39.40;28.00;;;;;;5073511;28;20028;-77
2022/09/04 12:24:42;;;;;;;2.28;1.60;;;39.20;27.50;;;;;;5061402;28;20032;-77
2022/09/04 12:27:41;;;;;;;1.20;1.10;;;39.10;27.60;;;;;;5075300;28;20020;-77
2022/09/04 12:30:47;;;;;;;1.40;1.30;;;39.00;27.10;;;;;;5051092;28;20063;-77
2022/09/04 12:33:25;;;;;;;1.80;1.40;;;39.00;26.70;;;;;;5055617;28;20025;-77
2022/09/04 12:36:15;;;;;;;1.48;1.38;;;39.00;27.90;;;;;;5066697;28;20060;-77
2022/09/04 12:39:02;;;;;;;1.52;1.42;;;39.10;27.70;;;;;;5063090;28;20028;-78
2022/09/04 12:41:59;;;;;;;1.65;1.55;;;39.20;27.60;;;;;;5056521;28;20025;-78
2022/09/04 12:44:34;;;;;;;1.40;1.30;;;39.10;27.10;;;;;;5055364;28;20156;-77
2022/09/04 12:47:24;;;;;;;2.53;1.50;;;39.00;27.40;;;;;;5070859;28;20232;-77
2022/09/04 12:49:54;;;;;;;1.55;1.40;;;38.90;27.40;;;;;;5076967;28;20024;-77
2022/09/04 12:52:48;;;;;;;1.40;1.30;;;38.90;27.60;;;;;;5047976;28;20055;-78
2022/09/04 12:55:44;;;;;;;1.65;1.40;;;38.80;28.30;;;;;;5052467;28;20485;-77
2022/09/04 12:58:33;;;;;;;1.60;1.20;;;38.80;27.10;;;;;;5055392;28;20066;-77
2022/09/04 13:01:30;;;;;;;1.20;1.10;;;38.80;27.40;;;;;;5081116;28;20028;-77
2022/09/04 13:04:11;;;;;;;1.42;1.30;;;38.60;26.90;;;;;;5080941;28;20028;-77
2022/09/04 13:07:07;;;;;;;1.40;1.30;;;38.60;27.40;;;;;;5051723;28;20551;-77
2022/09/04 13:09:43;;;;;;;1.60;1.23;;;38.50;27.40;;;;;;5057796;28;20309;-79
2022/09/04 13:12:30;;;;;;;1.13;1.03;;;38.40;27.60;;;;;;5064032;28;20021;-77
2022/09/04 13:15:18;;;;;;;1.20;1.10;;;38.40;27.40;;;;;;5069094;28;20032;-77
2022/09/04 13:17:52;;;;;;;1.98;1.30;;;38.30;27.70;;;;;;5076345;28;20488;-77
2022/09/04 13:20:42;;;;;;;1.48;1.00;;;38.30;27.40;;;;;;5069599;28;20031;-77
2022/09/04 13:23:47;;;;;;;1.40;1.10;;;38.40;27.70;;;;;;5050178;28;20255;-76
2022/09/04 13:26:30;;;;;;;1.20;1.10;;;38.30;27.30;;;;;;5050863;28;20151;-76
2022/09/04 13:29:09;;;;;;;2.15;1.08;;;38.10;26.50;;;;;;5072242;28;20027;-77
2022/09/04 13:31:54;;;;;;;1.40;1.30;;;37.80;26.90;;;;;;5080080;28;20755;-76
2022/09/04 13:34:59;;;;;;;2.55;1.52;;;37.70;26.90;;;;;;5069245;28;20182;-77
2022/09/04 13:37:37;;;;;;;1.00;0.90;;;37.40;26.80;;;;;;5059243;28;20055;-77
2022/09/04 13:40:18;;;;;;;1.93;1.40;;;37.20;27.20;;;;;;5041882;28;20024;-76
2022/09/04 13:42:47;;;;;;;2.00;1.25;;;37.00;27.30;;;;;;5059956;28;20263;-76
2022/09/04 13:45:27;;;;;;;2.95;1.42;;;36.90;27.60;;;;;;5070767;28;20213;-77
2022/09/04 13:48:02;;;;;;;1.60;1.20;;;36.80;27.30;;;;;;5054668;28;20036;-76
2022/09/04 13:50:31;;;;;;;1.50;1.23;;;36.60;27.30;;;;;;5056728;28;20293;-77
2022/09/04 13:53:21;;;;;;;1.60;1.07;;;36.50;27.40;;;;;;5055719;28;20229;-76
2022/09/04 13:56:08;;;;;;;1.45;1.20;;;36.40;27.50;;;;;;5045051;28;20098;-76
2022/09/04 13:58:50;;;;;;;5.00;1.40;;;36.30;28.00;;;;;;5062126;28;20562;-76
2022/09/04 14:01:21;;;;;;;1.50;1.10;;;36.20;27.70;;;;;;5069309;28;20036;-77
2022/09/04 14:03:56;;;;;;;1.50;1.10;;;36.20;27.90;;;;;;5057329;28;20597;-77
2022/09/04 14:06:25;;;;;;;1.23;1.10;;;36.10;27.90;;;;;;5045172;28;20020;-76
2022/09/04 14:08:57;;;;;;;1.40;1.20;;;35.90;28.00;;;;;;5052513;28;20465;-77
2022/09/04 14:11:40;;;;;;;1.75;1.20;;;35.90;28.00;;;;;;5042010;28;20044;-76
2022/09/04 14:14:36;;;;;;;1.20;1.00;;;35.80;28.30;;;;;;5062699;28;20036;-77
2022/09/04 14:17:04;;;;;;;2.58;1.10;;;35.80;28.40;;;;;;5069330;28;20032;-76
2022/09/04 14:19:41;;;;;;;1.20;1.10;;;35.80;28.30;;;;;;5024949;28;20045;-76
2022/09/04 14:22:26;;;;;;;1.20;1.08;;;35.70;28.30;;;;;;5051240;28;20032;-76
2022/09/04 14:25:00;;;;;;;1.30;0.95;;;35.70;28.30;;;;;;5064166;28;20300;-76
2022/09/04 14:27:38;;;;;;;2.08;1.20;;;35.70;28.40;;;;;;5048135;28;20109;-76